Time;durP1;ratioP1;P1;durP2;ratioP2;P2;SDS_P1;SDS_P2;PMS_P1;PMS_P2;Temp;Humidity;BMP_temperature;BMP_pressure;BME280_temperature;BME280_humidity;BME280_pressure;Samples;Min_cycle;Max_cycle;Signal;HPM_P1;HPM_P2
2022/04/21 00:00:33;;;;;;;;;;;;;;;17.25;62.65;98996.75;2081296;28;20383;-57
2022/04/21 00:01:34;;;;;;;;;;;;;;;17.24;62.60;98995.03;2086781;28;19964;-57
2022/04/21 00:02:34;;;;;;;;;;;;;;;17.25;62.51;98997.59;2080836;28;20409;-57
2022/04/21 00:03:34;;;;;;;;;;;;;;;17.25;62.77;98996.75;2084159;28;19917;-57
2022/04/21 00:04:35;;;;;;;;;;;;;;;17.24;62.75;98990.44;2079929;28;19915;-57
2022/04/21 00:05:35;;;;;;;;;;;;;;;17.23;62.72;98993.34;2079337;28;19921;-57
2022/04/21 00:06:36;;;;;;;;;;;;;;;17.24;62.79;98989.59;2084346;28;19960;-57
2022/04/21 00:07:36;;;;;;;;;;;;;;;17.23;62.53;98993.34;2079671;28;19909;-58
2022/04/21 00:08:37;;;;;;;;;;;;;;;17.24;62.69;98984.97;2086636;28;19969;-57
2022/04/21 00:09:37;;;;;;;;;;;;;;;17.24;62.70;98986.88;2073555;28;19971;-56
2022/04/21 00:10:38;;;;;;;;;;;;;;;17.23;62.72;98977.84;2092814;28;20620;-57
2022/04/21 00:11:38;;;;;;;;;;;;;;;17.24;62.57;98984.13;2099337;27;19955;-57
2022/04/21 00:12:39;;;;;;;;;;;;;;;17.23;62.59;98977.84;2083696;28;19916;-57
2022/04/21 00:13:39;;;;;;;;;;;;;;;17.23;62.77;98977.00;2081514;28;20304;-57
2022/04/21 00:14:40;;;;;;;;;;;;;;;17.24;62.72;98981.41;2081297;28;19924;-57
2022/04/21 00:15:40;;;;;;;;;;;;;;;17.23;62.48;98982.44;2084390;28;20243;-57
2022/04/21 00:16:41;;;;;;;;;;;;;;;17.23;62.56;98975.13;2078248;28;20286;-56
2022/04/21 00:17:41;;;;;;;;;;;;;;;17.24;62.66;98978.69;2079672;28;20444;-57
2022/04/21 00:18:42;;;;;;;;;;;;;;;17.23;62.49;98972.41;2079942;28;19924;-56
2022/04/21 00:19:43;;;;;;;;;;;;;;;17.23;62.46;98971.56;2078831;28;20212;-57
2022/04/21 00:20:43;;;;;;;;;;;;;;;17.24;62.61;98975.97;2075466;28;19961;-56
2022/04/21 00:24:21;;;;;;;;;;;;;;;17.23;62.49;98971.56;2082682;28;19916;-57
2022/04/21 00:25:22;;;;;;;;;;;;;;;17.21;62.56;98970.84;2082083;28;19908;-56
2022/04/21 00:26:23;;;;;;;;;;;;;;;17.23;62.68;98968.81;2083552;28;19917;-57
2022/04/21 00:27:24;;;;;;;;;;;;;;;17.23;62.86;98971.56;2079567;28;19909;-57
2022/04/21 00:28:24;;;;;;;;;;;;;;;17.23;62.65;98968.81;2079838;28;20295;-57
2022/04/21 00:29:25;;;;;;;;;;;;;;;17.23;62.49;98966.09;2084478;28;19944;-56
2022/04/21 00:30:25;;;;;;;;;;;;;;;17.21;62.62;98957.25;2078678;28;19924;-57
2022/04/21 00:31:26;;;;;;;;;;;;;;;17.21;62.55;98962.69;2078952;28;19972;-57
2022/04/21 00:32:26;;;;;;;;;;;;;;;17.22;62.89;98964.38;2080732;28;19954;-57
2022/04/21 00:33:27;;;;;;;;;;;;;;;17.21;62.68;98957.25;2082653;28;20445;-57
2022/04/21 00:34:27;;;;;;;;;;;;;;;17.19;62.82;98953.81;2084594;28;19951;-57
2022/04/21 00:35:28;;;;;;;;;;;;;;;17.19;62.62;98953.81;2076787;28;19917;-57
2022/04/21 00:36:28;;;;;;;;;;;;;;;17.19;62.67;98957.41;2081673;28;20035;-56
2022/04/21 00:37:28;;;;;;;;;;;;;;;17.20;62.75;98955.53;2082242;28;20652;-56
2022/04/21 00:38:29;;;;;;;;;;;;;;;17.21;62.73;98954.53;2084689;28;19934;-57
2022/04/21 00:39:31;;;;;;;;;;;;;;;17.21;62.82;98957.25;2080188;28;20015;-57
2022/04/21 00:40:32;;;;;;;;;;;;;;;17.20;62.66;98950.06;2099080;28;19916;-57
2022/04/21 00:41:33;;;;;;;;;;;;;;;17.20;62.73;98956.41;2090675;28;20449;-56
2022/04/21 00:42:33;;;;;;;;;;;;;;;17.20;62.66;98947.34;2082018;28;19923;-57
2022/04/21 00:43:33;;;;;;;;;;;;;;;17.20;62.65;98956.41;2082283;28;19909;-57
2022/04/21 00:44:34;;;;;;;;;;;;;;;17.19;62.80;98953.81;2084774;28;19924;-56
2022/04/21 00:45:34;;;;;;;;;;;;;;;17.19;62.67;98949.22;2081350;28;19931;-57
2022/04/21 00:46:38;;;;;;;;;;;;;;;17.19;62.73;98945.66;2085528;28;20354;-57
2022/04/21 00:47:44;;;;;;;;;;;;;;;17.17;62.67;98944.97;2082005;28;20316;-56
2022/04/21 00:48:45;;;;;;;;;;;;;;;17.19;62.50;98946.50;2082105;28;19916;-56
2022/04/21 00:49:46;;;;;;;;;;;;;;;17.19;62.57;98935.59;2084364;28;19950;-57
2022/04/21 00:50:47;;;;;;;;;;;;;;;17.19;62.64;98945.66;2077992;28;21147;-57
2022/04/21 00:51:48;;;;;;;;;;;;;;;17.20;62.57;98942.78;2080684;28;20022;-56
2022/04/21 00:52:49;;;;;;;;;;;;;;;17.19;62.77;98942.94;2078360;28;20433;-57
2022/04/21 00:53:50;;;;;;;;;;;;;;;17.18;62.59;98936.63;2078599;28;19917;-57
2022/04/21 00:54:50;;;;;;;;;;;;;;;17.19;62.57;98942.94;2079884;28;20388;-57
2022/04/21 00:55:52;;;;;;;;;;;;;;;17.19;62.62;98937.50;2085510;28;20276;-58
2022/04/21 00:56:53;;;;;;;;;;;;;;;17.19;62.46;98937.50;2083195;28;20253;-58
2022/04/21 00:57:54;;;;;;;;;;;;;;;17.19;62.48;98940.22;2086110;28;19909;-58
2022/04/21 00:58:55;;;;;;;;;;;;;;;17.19;62.71;98937.50;2081492;28;19920;-58
2022/04/21 00:59:55;;;;;;;;;;;;;;;17.18;62.58;98942.09;2084871;28;19908;-58
2022/04/21 01:00:55;;;;;;;;;;;;;;;17.18;62.73;98936.63;2081860;28;19944;-58
2022/04/21 01:03:15;;;;;;;;;;;;;;;17.19;62.81;98937.50;2096050;28;19912;-58
2022/04/21 01:04:16;;;;;;;;;;;;;;;17.17;62.52;98934.06;2085151;28;19916;-58
2022/04/21 01:05:16;;;;;;;;;;;;;;;17.17;62.57;98928.63;2079677;28;20358;-58
2022/04/21 01:06:16;;;;;;;;;;;;;;;17.16;62.58;98935.09;2080621;28;20354;-58
2022/04/21 01:07:17;;;;;;;;;;;;;;;17.17;62.68;98928.63;2077464;28;19920;-58
2022/04/21 01:08:17;;;;;;;;;;;;;;;17.17;62.67;98923.19;2086100;28;20247;-58
2022/04/21 01:09:18;;;;;;;;;;;;;;;17.16;62.70;98932.38;2078576;28;19995;-58
2022/04/21 01:10:18;;;;;;;;;;;;;;;17.17;62.57;98925.91;2083150;28;20023;-59
2022/04/21 01:11:21;;;;;;;;;;;;;;;17.17;62.58;98929.47;2084732;28;20228;-58
2022/04/21 01:12:21;;;;;;;;;;;;;;;17.17;62.77;98928.63;2080074;28;19924;-58
2022/04/21 01:13:21;;;;;;;;;;;;;;;17.17;62.49;98929.47;2082174;28;19951;-58
2022/04/21 01:14:22;;;;;;;;;;;;;;;17.16;62.80;98922.34;2081393;28;19979;-58
2022/04/21 01:15:23;;;;;;;;;;;;;;;17.18;62.59;98924.91;2077931;28;20159;-58
2022/04/21 01:16:23;;;;;;;;;;;;;;;17.17;62.65;98918.56;2085278;28;19928;-58
2022/04/21 01:17:33;;;;;;;;;;;;;;;17.18;62.74;98925.75;2083754;28;19917;-58
2022/04/21 01:18:34;;;;;;;;;;;;;;;17.17;62.61;98923.19;2085550;28;20248;-58
2022/04/21 01:19:35;;;;;;;;;;;;;;;17.17;62.57;98924.03;2083596;28;21370;-59
2022/04/21 01:20:35;;;;;;;;;;;;;;;17.17;62.73;98917.72;2087336;28;19916;-56
2022/04/21 01:21:35;;;;;;;;;;;;;;;17.17;62.48;98920.47;2093313;28;19916;-56
2022/04/21 01:22:36;;;;;;;;;;;;;;;17.17;62.80;98912.28;2080323;28;20244;-56
2022/04/21 01:23:36;;;;;;;;;;;;;;;17.15;62.58;98912.47;2081159;28;20598;-56
2022/04/21 01:24:36;;;;;;;;;;;;;;;17.16;62.76;98913.31;2084379;28;20298;-56
2022/04/21 01:25:38;;;;;;;;;;;;;;;17.17;62.75;98912.28;2084938;28;20225;-56
2022/04/21 01:26:39;;;;;;;;;;;;;;;17.16;62.51;98916.88;2100229;27;20473;-56
2022/04/21 01:27:40;;;;;;;;;;;;;;;17.16;62.77;98916.88;2101293;28;19966;-56
2022/04/21 01:28:41;;;;;;;;;;;;;;;17.16;62.64;98905.16;2076604;28;20105;-56
2022/04/21 01:29:43;;;;;;;;;;;;;;;17.17;62.47;98912.28;2079411;28;20616;-57
2022/04/21 01:30:43;;;;;;;;;;;;;;;17.14;62.72;98908.88;2085657;28;19927;-56
2022/04/21 01:31:43;;;;;;;;;;;;;;;17.14;62.80;98911.59;2081169;28;19917;-56
2022/04/21 01:32:45;;;;;;;;;;;;;;;17.13;62.78;98909.91;2080162;28;19917;-57
2022/04/21 01:33:45;;;;;;;;;;;;;;;17.13;62.77;98907.19;2077828;28;19916;-56
2022/04/21 01:34:45;;;;;;;;;;;;;;;17.14;62.70;98908.88;2079804;28;19916;-56
2022/04/21 01:35:45;;;;;;;;;;;;;;;17.14;62.55;98903.44;2077997;28;20692;-56
2022/04/21 01:42:02;;;;;;;;;;;;;;;17.13;62.55;98907.19;2077913;28;20295;-57
2022/04/21 01:43:02;;;;;;;;;;;;;;;17.13;62.62;98909.06;2076879;28;19917;-56
2022/04/21 01:44:03;;;;;;;;;;;;;;;17.13;62.55;98901.72;2078784;28;19917;-56
2022/04/21 01:45:04;;;;;;;;;;;;;;;17.12;62.63;98899.16;2082778;28;19946;-54
2022/04/21 01:46:04;;;;;;;;;;;;;;;17.13;62.69;98906.34;2084037;28;19917;-56
2022/04/21 01:47:05;;;;;;;;;;;;;;;17.13;62.60;98896.28;2084987;28;20367;-56
2022/04/21 01:48:05;;;;;;;;;;;;;;;17.12;62.48;98902.75;2082781;28;19917;-56
2022/04/21 01:49:05;;;;;;;;;;;;;;;17.12;62.62;98896.44;2077936;28;20207;-56
2022/04/21 01:50:07;;;;;;;;;;;;;;;17.12;62.57;98900.03;2085055;28;20283;-56
2022/04/21 01:51:07;;;;;;;;;;;;;;;17.13;62.71;98890.84;2080855;28;20390;-56
2022/04/21 01:52:08;;;;;;;;;;;;;;;17.13;62.65;98899.00;2086900;28;20255;-56
2022/04/21 01:53:08;;;;;;;;;;;;;;;17.13;62.55;98890.84;2079209;28;20160;-57
2022/04/21 01:54:08;;;;;;;;;;;;;;;17.13;62.69;98890.00;2076995;28;20317;-57
2022/04/21 01:55:09;;;;;;;;;;;;;;;17.13;62.72;98888.13;2081473;28;19928;-56
2022/04/21 01:56:09;;;;;;;;;;;;;;;17.13;62.67;98896.28;2076958;28;20243;-56
2022/04/21 01:57:10;;;;;;;;;;;;;;;17.12;62.67;98885.56;2077705;28;20279;-56
2022/04/21 01:58:10;;;;;;;;;;;;;;;17.13;62.76;98890.84;2077541;28;19916;-56
2022/04/21 01:59:10;;;;;;;;;;;;;;;17.12;62.74;98886.44;2080306;28;19955;-56
2022/04/21 02:00:11;;;;;;;;;;;;;;;17.13;62.76;98884.56;2084071;28;19916;-56
2022/04/21 02:01:11;;;;;;;;;;;;;;;17.12;62.74;98883.72;2079500;28;20497;-56
2022/04/21 02:02:12;;;;;;;;;;;;;;;17.12;62.84;98889.16;2081351;28;20435;-56
2022/04/21 02:03:12;;;;;;;;;;;;;;;17.11;62.66;98881.97;2081301;28;19938;-56
2022/04/21 02:04:13;;;;;;;;;;;;;;;17.11;62.82;98876.53;2079012;28;20496;-56
2022/04/21 02:05:13;;;;;;;;;;;;;;;17.11;62.59;98881.97;2077594;28;19916;-56
2022/04/21 02:06:14;;;;;;;;;;;;;;;17.11;62.57;98876.53;2079938;28;20342;-56
2022/04/21 02:07:15;;;;;;;;;;;;;;;17.12;62.71;98878.25;2079959;28;19943;-56
2022/04/21 02:08:15;;;;;;;;;;;;;;;17.11;62.57;98878.41;2085475;28;19959;-56
2022/04/21 02:09:16;;;;;;;;;;;;;;;17.10;62.82;98874.84;2080703;28;19947;-56
2022/04/21 02:10:17;;;;;;;;;;;;;;;17.10;62.73;98874.84;2078987;28;19920;-56
2022/04/21 02:11:17;;;;;;;;;;;;;;;17.11;62.53;98879.25;2077582;28;20360;-56
2022/04/21 02:12:18;;;;;;;;;;;;;;;17.11;62.72;98876.53;2081409;28;19923;-56
2022/04/21 02:13:18;;;;;;;;;;;;;;;17.09;62.51;98873.13;2078271;28;19948;-57
2022/04/21 02:14:19;;;;;;;;;;;;;;;17.11;62.71;98873.81;2081352;28;19956;-57
2022/04/21 02:15:19;;;;;;;;;;;;;;;17.11;62.82;98873.81;2083829;28;19962;-56
2022/04/21 02:16:20;;;;;;;;;;;;;;;17.10;62.72;98874.84;2080297;28;19925;-56
2022/04/21 02:17:20;;;;;;;;;;;;;;;17.11;62.73;98872.97;2081117;28;20013;-56
2022/04/21 02:18:20;;;;;;;;;;;;;;;17.10;62.68;98872.13;2079336;28;19959;-57
2022/04/21 02:19:21;;;;;;;;;;;;;;;17.11;62.64;98872.97;2079922;28;19943;-57
2022/04/21 02:20:21;;;;;;;;;;;;;;;17.11;62.65;98864.81;2082116;28;20198;-57
2022/04/21 02:21:21;;;;;;;;;;;;;;;17.11;62.79;98873.81;2084543;28;19916;-56
2022/04/21 02:22:22;;;;;;;;;;;;;;;17.11;62.50;98873.81;2078625;28;19923;-58
2022/04/21 02:23:22;;;;;;;;;;;;;;;17.10;62.73;98874.84;2084389;28;19920;-59
2022/04/21 02:24:23;;;;;;;;;;;;;;;17.10;62.64;98869.41;2075018;28;19917;-58
2022/04/21 02:25:23;;;;;;;;;;;;;;;17.10;62.55;98869.41;2079144;28;20389;-58
2022/04/21 02:26:23;;;;;;;;;;;;;;;17.11;62.85;98871.09;2085358;28;20387;-58
2022/04/21 02:27:23;;;;;;;;;;;;;;;17.10;62.68;98869.41;2080255;28;20242;-58
2022/04/21 02:28:25;;;;;;;;;;;;;;;17.10;62.65;98869.41;2080572;28;20261;-58
2022/04/21 02:29:25;;;;;;;;;;;;;;;17.10;62.66;98869.41;2082272;28;19956;-58
2022/04/21 02:30:25;;;;;;;;;;;;;;;17.11;62.73;98859.34;2079326;28;20126;-58
2022/04/21 02:31:26;;;;;;;;;;;;;;;17.10;62.53;98861.22;2077922;28;20237;-58
2022/04/21 02:32:26;;;;;;;;;;;;;;;17.09;62.58;98856.78;2084091;28;19916;-59
2022/04/21 02:33:26;;;;;;;;;;;;;;;17.08;62.66;98857.81;2083475;28;19912;-58
2022/04/21 02:34:28;;;;;;;;;;;;;;;17.09;62.63;98856.78;2077494;28;20618;-58
2022/04/21 02:35:29;;;;;;;;;;;;;;;17.09;62.66;98850.50;2083565;28;20153;-58
2022/04/21 02:36:29;;;;;;;;;;;;;;;17.08;62.58;98855.09;2084581;28;20379;-58
2022/04/21 02:37:36;;;;;;;;;;;;;;;17.09;62.58;98853.22;2078163;28;19996;-58
2022/04/21 02:38:37;;;;;;;;;;;;;;;17.08;62.74;98852.38;2081281;28;19917;-58
2022/04/21 02:39:37;;;;;;;;;;;;;;;17.08;62.67;98849.66;2085715;28;19909;-58
2022/04/21 02:40:37;;;;;;;;;;;;;;;17.07;62.62;98850.66;2081633;28;19917;-58
2022/04/21 02:41:38;;;;;;;;;;;;;;;17.09;62.81;98853.22;2084589;28;20002;-59
2022/04/21 02:42:38;;;;;;;;;;;;;;;17.08;62.75;98855.09;2081871;28;20005;-58
2022/04/21 02:43:39;;;;;;;;;;;;;;;17.08;62.66;98849.66;2085944;28;20399;-58
2022/04/21 02:44:39;;;;;;;;;;;;;;;17.08;62.43;98848.81;2078477;28;19924;-58
2022/04/21 02:45:40;;;;;;;;;;;;;;;17.07;62.70;98853.38;2084266;28;19922;-58
2022/04/21 02:46:41;;;;;;;;;;;;;;;17.07;62.74;98853.38;2081861;28;19936;-58
2022/04/21 02:47:44;;;;;;;;;;;;;;;17.08;62.76;98849.66;2083936;28;19923;-58
2022/04/21 02:48:45;;;;;;;;;;;;;;;17.08;62.87;98846.94;2077258;28;19924;-58
2022/04/21 02:49:46;;;;;;;;;;;;;;;17.08;62.62;98848.81;2080477;28;19909;-58
2022/04/21 02:50:49;;;;;;;;;;;;;;;17.08;62.59;98849.66;2081726;28;19921;-58
2022/04/21 02:51:50;;;;;;;;;;;;;;;17.07;62.61;98842.47;2081379;28;19916;-58
2022/04/21 02:52:50;;;;;;;;;;;;;;;17.08;62.72;98844.22;2087803;28;19908;-58
2022/04/21 02:57:48;;;;;;;;;;;;;;;17.07;62.52;98842.47;2083710;28;19916;-58
2022/04/21 02:58:49;;;;;;;;;;;;;;;17.08;62.56;98837.91;2081064;28;20202;-58
2022/04/21 02:59:54;;;;;;;;;;;;;;;17.08;62.70;98841.47;2083383;28;19908;-58
2022/04/21 03:00:54;;;;;;;;;;;;;;;17.06;62.52;98840.78;2078588;28;19912;-59
2022/04/21 03:01:55;;;;;;;;;;;;;;;17.07;62.68;98841.63;2083976;28;19909;-58
2022/04/21 03:02:58;;;;;;;;;;;;;;;17.07;62.67;98847.94;2083083;28;19920;-59
2022/04/21 03:04:00;;;;;;;;;;;;;;;17.06;62.49;98835.34;2080840;28;20016;-58
2022/04/21 03:05:00;;;;;;;;;;;;;;;17.06;62.70;98838.06;2080090;28;20022;-58
2022/04/21 03:06:00;;;;;;;;;;;;;;;17.07;62.67;98834.31;2082661;28;20165;-58
2022/04/21 03:07:00;;;;;;;;;;;;;;;17.06;62.79;98829.06;2084531;28;19923;-59
2022/04/21 03:08:01;;;;;;;;;;;;;;;17.06;62.60;98832.63;2077338;28;20793;-58
2022/04/21 03:09:02;;;;;;;;;;;;;;;17.06;62.73;98838.06;2080059;28;19924;-58
2022/04/21 03:10:02;;;;;;;;;;;;;;;17.06;62.82;98829.91;2077010;28;19909;-58
2022/04/21 03:11:02;;;;;;;;;;;;;;;17.06;62.73;98835.34;2077577;28;19971;-58
2022/04/21 03:12:03;;;;;;;;;;;;;;;17.06;62.66;98832.63;2077370;28;19942;-58
2022/04/21 03:13:03;;;;;;;;;;;;;;;17.05;62.78;98839.09;2081032;28;20347;-58
2022/04/21 03:14:04;;;;;;;;;;;;;;;17.05;62.67;98828.22;2080934;28;19908;-57
2022/04/21 03:15:05;;;;;;;;;;;;;;;17.05;62.63;98830.06;2085269;28;19947;-58
2022/04/21 03:16:05;;;;;;;;;;;;;;;17.05;62.44;98828.22;2084489;28;19960;-58
2022/04/21 03:17:06;;;;;;;;;;;;;;;17.05;62.70;98828.22;2076501;28;19927;-58
2022/04/21 03:18:07;;;;;;;;;;;;;;;17.03;62.67;98832.97;2075688;28;19916;-59
2022/04/21 03:19:07;;;;;;;;;;;;;;;17.05;62.71;98827.34;2081153;28;20280;-58
2022/04/21 03:20:08;;;;;;;;;;;;;;;17.05;62.69;98833.66;2085030;28;19913;-58
2022/04/21 03:25:07;;;;;;;;;;;;;;;17.05;62.65;98824.63;2079644;28;19924;-57
2022/04/21 03:26:07;;;;;;;;;;;;;;;17.05;62.77;98830.94;2077288;28;20047;-58
2022/04/21 03:27:07;;;;;;;;;;;;;;;17.05;62.87;98828.22;2076638;28;19924;-57
2022/04/21 03:28:08;;;;;;;;;;;;;;;17.04;62.68;98820.19;2083875;28;19962;-58
2022/04/21 03:29:08;;;;;;;;;;;;;;;17.04;62.55;98822.91;2082094;28;19916;-58
2022/04/21 03:30:09;;;;;;;;;;;;;;;17.05;62.83;98825.50;2089234;28;20242;-58
2022/04/21 03:31:09;;;;;;;;;;;;;;;17.04;62.55;98820.19;2080842;28;19924;-57
2022/04/21 03:32:11;;;;;;;;;;;;;;;17.04;62.62;98821.03;2083506;28;19916;-58
2022/04/21 03:33:11;;;;;;;;;;;;;;;17.05;62.67;98821.88;2076856;28;20358;-58
2022/04/21 03:34:18;;;;;;;;;;;;;;;17.04;62.63;98821.03;2080317;28;20022;-57
2022/04/21 03:35:18;;;;;;;;;;;;;;;17.05;62.73;98825.50;2089414;28;19924;-58
2022/04/21 03:36:19;;;;;;;;;;;;;;;17.03;62.62;98824.81;2079301;28;20599;-58
2022/04/21 03:37:20;;;;;;;;;;;;;;;17.05;62.55;98821.88;2082057;28;20006;-58
2022/04/21 03:38:20;;;;;;;;;;;;;;;17.03;62.83;98821.22;2082134;28;19916;-58
2022/04/21 03:39:21;;;;;;;;;;;;;;;17.04;62.76;98817.47;2074454;28;19978;-58
2022/04/21 03:40:22;;;;;;;;;;;;;;;17.04;62.72;98826.50;2083519;28;20010;-58
2022/04/21 03:41:22;;;;;;;;;;;;;;;17.02;62.60;98817.63;2083014;28;19908;-58
2022/04/21 03:42:24;;;;;;;;;;;;;;;17.02;62.51;98823.06;2096554;28;20876;-58
2022/04/21 03:43:24;;;;;;;;;;;;;;;17.02;62.73;98823.06;2099243;27;19919;-58
2022/04/21 03:44:24;;;;;;;;;;;;;;;17.03;62.50;98824.81;2081922;28;20003;-58
2022/04/21 03:45:24;;;;;;;;;;;;;;;17.02;62.55;98817.63;2080124;28;20660;-58
2022/04/21 03:46:25;;;;;;;;;;;;;;;17.02;62.67;98819.50;2081895;28;20522;-58
2022/04/21 03:47:25;;;;;;;;;;;;;;;17.03;62.70;98824.81;2083221;28;19942;-58
2022/04/21 03:48:25;;;;;;;;;;;;;;;17.02;62.45;98823.06;2076004;28;19916;-58
2022/04/21 03:49:29;;;;;;;;;;;;;;;17.02;62.78;98816.78;2080275;28;19920;-58
2022/04/21 03:50:31;;;;;;;;;;;;;;;17.02;62.66;98823.06;2081580;28;19928;-58
2022/04/21 03:51:31;;;;;;;;;;;;;;;17.03;62.62;98823.97;2076846;28;19916;-58
2022/04/21 03:52:32;;;;;;;;;;;;;;;17.03;62.72;98823.97;2084223;28;19915;-59
2022/04/21 03:53:32;;;;;;;;;;;;;;;17.02;62.68;98823.06;2083091;28;19916;-58
2022/04/21 03:54:33;;;;;;;;;;;;;;;17.01;62.83;98815.09;2078520;28;19920;-58
2022/04/21 03:55:33;;;;;;;;;;;;;;;17.02;62.66;98814.06;2085020;28;19917;-58
2022/04/21 03:56:35;;;;;;;;;;;;;;;17.02;62.64;98811.34;2079965;28;20342;-58
2022/04/21 03:57:35;;;;;;;;;;;;;;;17.01;62.58;98815.94;2084502;28;19917;-58
2022/04/21 03:58:35;;;;;;;;;;;;;;;17.03;62.65;98818.50;2077791;28;19936;-58
2022/04/21 03:59:36;;;;;;;;;;;;;;;17.02;62.80;98820.34;2078531;28;20052;-58
2022/04/21 04:00:37;;;;;;;;;;;;;;;17.02;62.82;98823.06;2081575;28;20134;-58
2022/04/21 04:01:37;;;;;;;;;;;;;;;17.02;62.53;98817.63;2079480;28;19930;-59
2022/04/21 04:02:38;;;;;;;;;;;;;;;17.02;62.58;98811.34;2076897;28;20127;-58
2022/04/21 04:03:38;;;;;;;;;;;;;;;17.01;62.63;98809.66;2077632;28;20117;-58
2022/04/21 04:04:39;;;;;;;;;;;;;;;17.01;62.75;98815.94;2077972;28;19934;-59
2022/04/21 04:05:39;;;;;;;;;;;;;;;17.02;62.66;98812.19;2076682;28;19916;-59
2022/04/21 04:10:52;;;;;;;;;;;;;;;17.00;62.64;98808.81;2084207;28;19925;-58
2022/04/21 04:11:52;;;;;;;;;;;;;;;17.00;62.55;98808.81;2078951;28;20010;-59
2022/04/21 04:12:53;;;;;;;;;;;;;;;16.99;62.52;98804.38;2083285;28;19944;-59
2022/04/21 04:13:53;;;;;;;;;;;;;;;17.01;62.73;98810.50;2076572;28;19916;-59
2022/04/21 04:14:54;;;;;;;;;;;;;;;17.01;62.43;98807.78;2083860;28;20184;-59
2022/04/21 04:15:54;;;;;;;;;;;;;;;17.00;62.60;98808.81;2078964;28;19920;-58
2022/04/21 04:16:55;;;;;;;;;;;;;;;17.00;62.56;98806.09;2082004;28;20256;-59
2022/04/21 04:17:55;;;;;;;;;;;;;;;17.00;62.75;98807.94;2077686;28;19939;-59
2022/04/21 04:18:56;;;;;;;;;;;;;;;16.99;62.75;98807.09;2081831;28;20333;-58
2022/04/21 04:19:56;;;;;;;;;;;;;;;16.99;62.53;98807.09;2079971;28;20406;-59
2022/04/21 04:20:56;;;;;;;;;;;;;;;16.99;62.54;98807.09;2079382;28;19924;-59
2022/04/21 04:21:56;;;;;;;;;;;;;;;17.00;62.57;98797.91;2079834;28;19971;-59
2022/04/21 04:22:57;;;;;;;;;;;;;;;16.98;62.62;98799.06;2079343;28;20297;-57
2022/04/21 04:23:57;;;;;;;;;;;;;;;17.00;62.49;98797.03;2082156;28;20105;-58
2022/04/21 04:24:58;;;;;;;;;;;;;;;17.00;62.49;98797.03;2083192;28;19909;-58
2022/04/21 04:25:58;;;;;;;;;;;;;;;17.00;62.70;98802.50;2083689;28;20121;-58
2022/04/21 04:26:58;;;;;;;;;;;;;;;17.00;62.64;98797.91;2079785;28;20266;-58
2022/04/21 04:27:59;;;;;;;;;;;;;;;17.00;62.57;98800.66;2085257;28;19991;-57
2022/04/21 04:28:59;;;;;;;;;;;;;;;16.99;62.55;98796.19;2082191;28;19913;-58
2022/04/21 04:29:59;;;;;;;;;;;;;;;17.00;62.64;98803.38;2083613;28;20363;-58
2022/04/21 04:31:00;;;;;;;;;;;;;;;16.99;62.70;98796.19;2076729;28;20408;-57
2022/04/21 04:32:01;;;;;;;;;;;;;;;17.00;62.60;98791.59;2077988;28;19935;-58
2022/04/21 04:33:01;;;;;;;;;;;;;;;16.99;62.75;98798.91;2083757;28;19916;-58
2022/04/21 04:34:02;;;;;;;;;;;;;;;16.98;62.79;98796.34;2076417;28;19924;-56
2022/04/21 04:35:03;;;;;;;;;;;;;;;16.99;62.57;98796.19;2075984;28;19909;-56
2022/04/21 04:36:03;;;;;;;;;;;;;;;17.00;62.63;98797.03;2090200;28;19908;-56
2022/04/21 04:37:04;;;;;;;;;;;;;;;16.98;62.78;98799.94;2080783;28;19966;-57
2022/04/21 04:38:04;;;;;;;;;;;;;;;16.98;62.71;98799.94;2078815;28;21303;-56
2022/04/21 04:39:04;;;;;;;;;;;;;;;16.98;62.74;98799.94;2078227;28;19917;-56
2022/04/21 04:40:05;;;;;;;;;;;;;;;16.98;62.41;98799.06;2076349;28;19916;-56
2022/04/21 04:42:24;;;;;;;;;;;;;;;16.98;62.62;98799.06;2078390;28;19912;-56
2022/04/21 04:43:25;;;;;;;;;;;;;;;16.98;62.63;98801.78;2083820;28;19917;-56
2022/04/21 04:44:25;;;;;;;;;;;;;;;16.96;62.60;98799.25;2076295;28;19924;-56
2022/04/21 04:46:45;;;;;;;;;;;;;;;16.98;62.55;98802.69;2081360;28;19992;-56
2022/04/21 04:47:45;;;;;;;;;;;;;;;16.98;62.76;98799.06;2078585;28;20015;-56
2022/04/21 04:48:46;;;;;;;;;;;;;;;16.95;62.73;98793.97;2083265;28;20255;-57
2022/04/21 04:49:46;;;;;;;;;;;;;;;16.99;62.81;98798.06;2076611;28;19927;-56
2022/04/21 04:50:47;;;;;;;;;;;;;;;16.97;62.61;98798.22;2078297;28;19971;-56
2022/04/21 04:51:47;;;;;;;;;;;;;;;16.97;62.57;98792.78;2083982;28;20281;-56
2022/04/21 04:52:47;;;;;;;;;;;;;;;16.97;62.74;98792.78;2089251;28;19917;-56
2022/04/21 04:53:48;;;;;;;;;;;;;;;16.98;62.75;98804.53;2078654;28;19923;-56
2022/04/21 04:54:48;;;;;;;;;;;;;;;16.98;62.50;98799.94;2083292;28;20374;-56
2022/04/21 04:55:48;;;;;;;;;;;;;;;16.97;62.38;98795.50;2080829;28;20319;-56
2022/04/21 04:56:49;;;;;;;;;;;;;;;16.97;62.54;98798.22;2076587;28;20037;-57
2022/04/21 04:57:50;;;;;;;;;;;;;;;16.98;62.60;98793.63;2079504;28;20302;-57
2022/04/21 04:58:51;;;;;;;;;;;;;;;16.98;62.70;98799.06;2077040;28;20581;-57
2022/04/21 04:59:52;;;;;;;;;;;;;;;16.98;62.38;98797.22;2080524;28;20025;-57
2022/04/21 05:00:52;;;;;;;;;;;;;;;16.97;62.67;98792.78;2078724;28;19972;-57
2022/04/21 05:01:52;;;;;;;;;;;;;;;16.97;62.70;98795.50;2084166;28;19999;-57
2022/04/21 05:02:52;;;;;;;;;;;;;;;16.98;62.54;98794.50;2085639;28;19916;-57
2022/04/21 05:04:03;;;;;;;;;;;;;;;16.97;62.61;98790.06;2078322;28;19917;-57
2022/04/21 05:05:03;;;;;;;;;;;;;;;16.97;62.59;98792.78;2076234;28;20376;-56
2022/04/21 05:06:04;;;;;;;;;;;;;;;16.96;62.66;98785.66;2081349;28;19956;-57
2022/04/21 05:07:05;;;;;;;;;;;;;;;16.97;62.57;98791.94;2080822;28;20036;-57
2022/04/21 05:08:06;;;;;;;;;;;;;;;16.97;62.79;98792.78;2082326;28;20039;-56
2022/04/21 05:09:07;;;;;;;;;;;;;;;16.97;62.54;98797.38;2078552;28;20026;-56
2022/04/21 05:10:08;;;;;;;;;;;;;;;16.96;62.66;98792.97;2081164;28;19921;-57
2022/04/21 05:11:11;;;;;;;;;;;;;;;16.97;62.51;98786.50;2076439;28;19920;-57
2022/04/21 05:12:11;;;;;;;;;;;;;;;16.98;62.41;98799.06;2092577;28;20086;-57
2022/04/21 05:13:11;;;;;;;;;;;;;;;16.96;62.67;98790.25;2096431;28;19985;-57
2022/04/21 05:14:13;;;;;;;;;;;;;;;16.97;62.49;98791.94;2075736;28;20011;-56
2022/04/21 05:15:13;;;;;;;;;;;;;;;16.96;62.38;98785.66;2076236;28;19909;-57
2022/04/21 05:16:14;;;;;;;;;;;;;;;16.96;62.56;98793.81;2081435;28;20255;-56
2022/04/21 05:17:14;;;;;;;;;;;;;;;16.95;62.38;98794.81;2082303;28;19917;-57
2022/04/21 05:18:15;;;;;;;;;;;;;;;16.95;62.40;98789.38;2081965;28;19908;-57
2022/04/21 05:19:16;;;;;;;;;;;;;;;16.95;62.54;98794.81;2083476;28;19912;-57
2022/04/21 05:20:17;;;;;;;;;;;;;;;16.95;62.54;98789.38;2081479;28;19920;-57
2022/04/21 05:21:17;;;;;;;;;;;;;;;16.95;62.51;98785.81;2080500;28;19923;-57
2022/04/21 05:22:18;;;;;;;;;;;;;;;16.95;62.46;98792.09;2084924;28;20251;-57
2022/04/21 05:23:20;;;;;;;;;;;;;;;16.96;62.63;98792.97;2077335;28;19916;-57
2022/04/21 05:24:21;;;;;;;;;;;;;;;16.96;62.42;98791.09;2081223;28;20276;-57
2022/04/21 05:25:26;;;;;;;;;;;;;;;16.95;62.32;98789.38;2076671;28;20159;-57
2022/04/21 05:26:30;;;;;;;;;;;;;;;16.95;62.40;98785.81;2078766;28;19920;-56
2022/04/21 05:27:31;;;;;;;;;;;;;;;16.95;62.39;98786.66;2078545;28;19921;-57
2022/04/21 05:28:31;;;;;;;;;;;;;;;16.95;62.49;98789.38;2076977;28;19916;-57
2022/04/21 05:31:01;;;;;;;;;;;;;;;16.96;62.66;98788.38;2076841;28;20696;-57
2022/04/21 05:32:03;;;;;;;;;;;;;;;16.95;62.54;98789.38;2095926;28;19937;-56
2022/04/21 05:33:03;;;;;;;;;;;;;;;16.95;62.67;98788.53;2098907;28;20043;-57
2022/04/21 05:34:04;;;;;;;;;;;;;;;16.94;62.47;98790.41;2080788;28;19916;-57
2022/04/21 05:35:04;;;;;;;;;;;;;;;16.96;62.46;98790.25;2080752;28;19921;-57
2022/04/21 05:36:05;;;;;;;;;;;;;;;16.95;62.55;98794.81;2085562;28;19916;-57
2022/04/21 05:37:06;;;;;;;;;;;;;;;16.95;62.39;98793.97;2081204;28;20307;-57
2022/04/21 05:38:06;;;;;;;;;;;;;;;16.95;62.78;98794.81;2081027;28;19917;-57
2022/04/21 05:39:07;;;;;;;;;;;;;;;16.95;62.70;98794.81;2082989;28;20052;-56
2022/04/21 05:40:07;;;;;;;;;;;;;;;16.95;62.68;98794.81;2084969;28;19998;-57
2022/04/21 05:41:08;;;;;;;;;;;;;;;16.95;62.67;98800.25;2077617;28;19912;-57
2022/04/21 05:42:11;;;;;;;;;;;;;;;16.95;62.42;98799.41;2085604;28;20211;-57